Time;durP1;ratioP1;P1;durP2;ratioP2;P2;SDS_P1;SDS_P2;PMS_P1;PMS_P2;Temp;Humidity;BMP_temperature;BMP_pressure;BME280_temperature;BME280_humidity;BME280_pressure;Samples;Min_cycle;Max_cycle;Signal;HPM_P1;HPM_P2
2022/08/08 00:02:58;;;;;;;4.68;1.73;;;;;;;23.63;39.43;100047.97;7645210;32;39975;-77
2022/08/08 00:07:32;;;;;;;2.95;1.52;;;;;;;23.69;39.93;100053.28;7657328;32;39267;-77
2022/08/08 00:12:00;;;;;;;1.67;1.20;;;;;;;23.67;39.94;100052.81;7639118;32;38731;-77
2022/08/08 00:16:47;;;;;;;5.15;1.50;;;;;;;23.63;38.98;100045.19;7619561;32;37002;-77
2022/08/08 00:21:04;;;;;;;3.30;1.30;;;;;;;23.60;39.86;100040.31;7622944;32;40513;-76
2022/08/08 00:25:30;;;;;;;1.87;1.35;;;;;;;23.68;39.86;100029.38;7649212;32;39089;-76
2022/08/08 00:30:08;;;;;;;2.28;1.33;;;;;;;23.80;39.95;100015.41;7648851;32;38900;-77
2022/08/08 00:39:14;;;;;;;3.67;1.35;;;;;;;23.88;39.69;99996.97;7659520;32;39381;-77
2022/08/08 00:44:28;;;;;;;4.47;1.35;;;;;;;23.85;39.04;100008.81;7648436;32;40151;-77
2022/08/08 00:49:02;;;;;;;2.78;1.48;;;;;;;23.72;38.94;99997.72;7659829;32;38066;-78
2022/08/08 00:53:43;;;;;;;1.85;1.35;;;;;;;23.71;40.16;99993.28;7646061;32;37792;-77
2022/08/08 00:58:39;;;;;;;2.40;1.30;;;;;;;23.50;40.92;100001.88;7622028;32;40630;-77
2022/08/08 01:03:48;;;;;;;2.58;1.10;;;;;;;23.66;39.42;100003.88;7622238;32;39932;-77
2022/08/08 01:08:47;;;;;;;2.62;1.33;;;;;;;23.65;39.68;100013.41;7633421;32;37934;-77
2022/08/08 01:13:36;;;;;;;2.12;1.30;;;;;;;23.62;40.05;100018.50;7633439;32;37218;-77
2022/08/08 01:18:00;;;;;;;;;;;;;;;23.33;40.70;100008.53;7633713;32;39090;-76
2022/08/08 01:22:28;;;;;;;1.75;1.30;;;;;;;23.66;39.40;100026.94;7647717;32;40157;-76
2022/08/08 01:27:12;;;;;;;2.28;1.33;;;;;;;23.61;39.35;100014.13;7633099;32;38705;-76
2022/08/08 01:31:47;;;;;;;4.18;1.50;;;;;;;23.56;39.84;100024.66;7632830;32;37492;-76
2022/08/08 01:37:00;;;;;;;1.37;1.20;;;;;;;23.66;39.66;100029.72;7632693;32;40629;-77
2022/08/08 01:41:47;;;;;;;3.58;1.40;;;;;;;23.66;39.67;100031.72;7633057;32;39733;-76
2022/08/08 01:46:45;;;;;;;2.70;1.30;;;;;;;23.35;40.70;100025.69;7632045;32;37900;-75
2022/08/08 01:51:28;;;;;;;1.45;1.20;;;;;;;23.10;41.34;100024.94;7638273;32;37010;-75
2022/08/08 01:56:19;;;;;;;3.47;1.40;;;;;;;23.03;41.28;100027.47;7658695;32;39562;-77
2022/08/08 02:01:21;;;;;;;4.72;1.27;;;;;;;23.10;40.84;100016.59;7659105;32;39778;-77
2022/08/08 02:05:50;;;;;;;1.67;1.30;;;;;;;23.13;40.69;100010.34;7647390;32;38023;-76
2022/08/08 02:10:35;;;;;;;4.12;1.20;;;;;;;23.05;40.87;100008.47;7647445;32;37757;-76
2022/08/08 02:15:21;;;;;;;1.20;1.10;;;;;;;23.13;39.95;99990.88;7658852;32;39536;-76
2022/08/08 04:43:55;;;;;;;2.17;1.35;;;;;;;22.43;44.07;100055.72;7886775;27;20090;-75
2022/08/08 04:48:12;;;;;;;3.62;1.50;;;;;;;22.38;44.16;100055.94;7630193;32;39968;-76
2022/08/08 04:52:30;;;;;;;7.65;1.87;;;;;;;22.32;44.87;100071.25;7630003;32;39887;-76
2022/08/08 04:56:50;;;;;;;5.03;1.20;;;;;;;22.32;46.45;100071.25;7629988;32;38130;-76
2022/08/08 05:01:06;;;;;;;4.82;1.70;;;;;;;22.35;45.67;100075.28;7630328;32;37759;-76
2022/08/08 05:05:26;;;;;;;2.83;1.40;;;;;;;22.67;45.94;100070.81;7631958;32;39053;-76
2022/08/08 05:10:00;;;;;;;4.68;1.40;;;;;;;22.83;44.49;100080.06;7608512;32;40683;-76
2022/08/08 05:14:18;;;;;;;3.90;1.37;;;;;;;23.08;44.07;100073.69;7608237;32;38079;-77
2022/08/08 05:18:35;;;;;;;3.72;1.50;;;;;;;23.14;43.57;100084.25;7631944;32;37106;-76
2022/08/08 05:22:52;;;;;;;2.75;1.20;;;;;;;23.14;44.24;100083.44;7632859;32;39489;-77
2022/08/08 05:27:08;;;;;;;3.00;1.45;;;;;;;23.24;44.32;100089.31;7632524;32;40008;-77
2022/08/08 05:31:24;;;;;;;3.28;1.20;;;;;;;23.00;45.01;100092.09;7633057;32;38130;-77
2022/08/08 05:36:01;;;;;;;2.05;1.30;;;;;;;23.26;44.07;100086.19;7632725;32;38439;-76
2022/08/08 05:40:19;;;;;;;2.85;1.50;;;;;;;23.23;44.56;100100.78;7633383;32;39140;-75
2022/08/08 05:44:48;;;;;;;2.97;1.42;;;;;;;23.07;46.14;100111.81;7632858;32;39937;-75
2022/08/08 05:49:09;;;;;;;4.55;1.37;;;;;;;23.35;44.82;100111.94;7632916;32;38860;-76
2022/08/08 05:53:26;;;;;;;3.37;1.42;;;;;;;23.30;45.37;100109.38;7632965;32;38101;-77
2022/08/08 05:58:04;;;;;;;2.95;1.50;;;;;;;23.55;44.63;100092.63;7632894;32;39682;-76
2022/08/08 06:07:10;;;;;;;2.80;1.50;;;;;;;23.70;42.21;100099.41;7632582;32;37985;-75
2022/08/08 06:11:31;;;;;;;7.12;1.50;;;;;;;23.67;41.59;100089.81;7619095;32;37812;-77
2022/08/08 06:15:54;;;;;;;3.33;1.33;;;;;;;24.02;41.86;100094.78;7628913;32;40524;-77
2022/08/08 06:20:12;;;;;;;4.12;1.30;;;;;;;23.91;41.32;100097.28;7632268;32;40048;-76
2022/08/08 06:24:31;;;;;;;11.23;1.70;;;;;;;24.17;40.63;100096.81;7632342;32;37977;-76
2022/08/08 06:29:08;;;;;;;2.87;1.40;;;;;;;24.28;39.39;100102.66;7632271;32;37084;-75
2022/08/08 06:34:00;;;;;;;2.80;1.40;;;;;;;24.03;39.32;100098.41;7629972;32;39392;-77
2022/08/08 06:38:39;;;;;;;2.85;1.27;;;;;;;23.99;40.36;100109.41;7630629;32;40067;-76
2022/08/08 06:43:04;;;;;;;1.30;1.15;;;;;;;23.67;42.19;100114.06;7632492;32;38095;-76
2022/08/08 06:47:20;;;;;;;6.35;1.40;;;;;;;23.59;42.05;100111.06;7605115;32;37198;-76
2022/08/08 06:51:58;;;;;;;2.55;1.20;;;;;;;23.13;42.81;100116.00;7603486;32;39638;-76
2022/08/08 06:56:14;;;;;;;4.80;1.52;;;;;;;23.90;40.81;100104.00;7605288;32;39606;-77
2022/08/08 07:00:34;;;;;;;3.03;1.25;;;;;;;24.16;37.61;100106.34;7605494;32;38027;-76
2022/08/08 07:05:01;;;;;;;9.27;1.27;;;;;;;23.93;38.84;100103.31;7605075;32;37231;-76
2022/08/08 07:09:20;;;;;;;5.05;1.55;;;;;;;24.34;38.02;100095.66;7606345;32;39419;-76
2022/08/08 07:13:44;;;;;;;1.45;1.27;;;;;;;24.92;37.87;100102.69;7606104;32;40137;-75
2022/08/08 07:18:38;;;;;;;2.40;1.20;;;;;;;24.43;38.38;100114.19;7605984;32;37710;-75
2022/08/08 07:23:03;;;;;;;2.35;1.05;;;;;;;24.31;38.85;100121.44;7598579;32;37168;-77
2022/08/08 07:27:23;;;;;;;1.42;1.00;;;;;;;24.13;39.67;100112.63;7605044;32;39401;-75
2022/08/08 07:32:00;;;;;;;2.75;1.37;;;;;;;24.16;36.56;100111.09;7604579;32;41233;-74
2022/08/08 07:36:18;;;;;;;3.97;1.10;;;;;;;24.58;37.90;100110.66;7605270;32;39325;-75
2022/08/08 07:40:36;;;;;;;2.30;1.25;;;;;;;24.91;35.46;100101.09;7600778;32;36309;-75
2022/08/08 07:44:54;;;;;;;1.92;1.20;;;;;;;25.07;35.71;100109.44;7604543;32;39308;-77
2022/08/08 07:49:12;;;;;;;4.03;1.45;;;;;;;25.55;35.20;100106.56;7617536;32;40731;-75
2022/08/08 07:53:33;;;;;;;1.80;1.10;;;;;;;25.51;34.34;100109.28;7631024;32;36869;-75
2022/08/08 07:58:35;;;;;;;3.97;1.25;;;;;;;25.71;34.97;100110.09;7630400;32;37377;-76
2022/08/08 08:03:11;;;;;;;8.07;1.70;;;;;;;25.63;34.25;100114.72;7618852;32;39428;-75
2022/08/08 08:07:36;;;;;;;3.37;1.42;;;;;;;25.51;33.79;100128.00;7631038;32;38518;-74
2022/08/08 08:11:54;;;;;;;2.75;1.10;;;;;;;25.86;33.80;100117.59;7631235;32;35808;-76
2022/08/08 08:16:16;;;;;;;1.37;1.12;;;;;;;25.64;34.32;100121.91;7614637;32;37177;-75
2022/08/08 08:20:34;;;;;;;8.15;1.42;;;;;;;25.60;34.28;100120.22;7623165;32;39485;-75
2022/08/08 08:24:50;;;;;;;1.37;1.10;;;;;;;26.49;33.02;100126.81;7611841;32;39471;-74
2022/08/08 08:29:07;;;;;;;2.62;1.10;;;;;;;26.15;31.24;100128.56;7628161;32;38440;-75
2022/08/08 08:33:28;;;;;;;1.75;1.05;;;;;;;25.41;31.73;100130.19;7629333;32;37786;-76
2022/08/08 08:37:46;;;;;;;1.37;1.23;;;;;;;26.05;32.68;100138.34;7631275;32;39242;-75
2022/08/08 08:42:26;;;;;;;3.85;1.35;;;;;;;26.56;31.99;100132.53;7621247;32;40197;-75
2022/08/08 08:46:52;;;;;;;3.80;1.15;;;;;;;26.98;30.67;100137.25;7632753;32;38869;-76
2022/08/08 08:51:14;;;;;;;;;;;;;;;26.75;30.93;100133.66;7620100;32;37082;-75
2022/08/08 08:55:33;;;;;;;4.60;1.12;;;;;;;26.03;32.38;100137.91;7631928;32;39615;-73
2022/08/08 08:59:55;;;;;;;8.70;1.30;;;;;;;26.32;31.53;100141.25;7629528;32;40089;-75
2022/08/08 09:04:24;;;;;;;1.75;1.00;;;;;;;26.65;31.32;100142.66;7629130;32;37668;-74
2022/08/08 09:09:13;;;;;;;1.75;1.00;;;;;;;26.80;30.97;100141.72;7630142;32;37861;-75
2022/08/08 09:13:50;;;;;;;2.62;1.10;;;;;;;27.10;30.40;100138.25;7631899;32;39692;-75
2022/08/08 09:18:08;;;;;;;4.35;1.10;;;;;;;26.55;30.85;100142.09;7633397;32;40654;-75
2022/08/08 09:22:27;;;;;;;4.72;1.10;;;;;;;26.86;30.53;100145.84;7632308;32;39327;-75
2022/08/08 09:27:02;;;;;;;3.12;1.35;;;;;;;27.67;29.65;100144.69;7632847;32;37619;-75
2022/08/08 09:31:30;;;;;;;3.03;1.00;;;;;;;27.30;29.74;100145.37;7619453;32;39528;-75
2022/08/08 09:36:09;;;;;;;6.03;1.52;;;;;;;27.76;29.20;100135.19;7631761;32;40223;-74
2022/08/08 09:40:28;;;;;;;8.13;1.42;;;;;;;27.42;29.98;100133.13;7619263;32;38570;-76
2022/08/08 09:45:20;;;;;;;4.40;1.02;;;;;;;27.85;28.84;100132.91;7632581;32;37666;-74
2022/08/08 09:49:57;;;;;;;3.12;1.30;;;;;;;28.05;28.64;100125.97;7630308;32;39432;-75
2022/08/08 09:54:30;;;;;;;3.90;1.40;;;;;;;27.51;29.84;100122.47;7617903;32;40706;-75
2022/08/08 09:59:02;;;;;;;6.95;1.65;;;;;;;27.68;31.01;100134.28;7619397;32;38582;-74
2022/08/08 10:03:39;;;;;;;1.25;1.10;;;;;;;27.87;30.28;100122.13;7630344;32;37039;-74
2022/08/08 10:07:56;;;;;;;3.53;1.45;;;;;;;27.89;31.50;100128.16;7632849;32;39884;-75
2022/08/08 10:12:16;;;;;;;2.85;1.50;;;;;;;27.54;32.15;100132.09;7631702;32;40009;-74
2022/08/08 10:16:45;;;;;;;10.85;1.52;;;;;;;26.89;33.92;100144.28;7617049;32;38794;-74
2022/08/08 10:21:11;;;;;;;3.00;1.42;;;;;;;27.96;33.31;100136.69;7629542;32;38611;-74
2022/08/08 10:25:43;;;;;;;5.65;1.40;;;;;;;27.97;31.53;100143.88;7629464;32;39961;-74
2022/08/08 10:30:12;;;;;;;4.07;1.67;;;;;;;27.76;31.26;100152.00;7629296;32;40548;-74
2022/08/08 10:34:51;;;;;;;2.72;1.48;;;;;;;28.26;30.76;100158.25;7629341;32;38218;-75
2022/08/08 10:39:24;;;;;;;1.42;1.30;;;;;;;28.34;30.70;100150.69;7632025;32;37114;-75
2022/08/08 10:43:48;;;;;;;6.50;2.70;;;;;;;28.10;32.14;100162.06;7631292;32;39413;-74
2022/08/08 10:48:09;;;;;;;7.82;3.33;;;;;;;26.75;38.83;100172.81;7619106;32;40865;-74
2022/08/08 10:52:26;;;;;;;7.78;3.35;;;;;;;25.95;42.55;100176.03;7632158;32;38634;-74
2022/08/08 10:56:54;;;;;;;5.30;3.05;;;;;;;25.61;44.51;100177.66;7631672;32;36747;-75
2022/08/08 11:01:11;;;;;;;9.15;3.75;;;;;;;25.39;46.66;100187.53;7630409;32;39435;-74
2022/08/08 11:05:30;;;;;;;6.15;3.90;;;;;;;25.00;48.37;100182.59;7630942;32;40952;-74
2022/08/08 11:09:54;;;;;;;6.37;4.07;;;;;;;24.31;51.28;100190.28;7617866;32;38738;-74
2022/08/08 11:14:12;;;;;;;6.47;3.87;;;;;;;24.61;50.63;100199.13;7618215;32;37120;-74
2022/08/08 11:18:32;;;;;;;8.63;4.43;;;;;;;23.92;52.80;100196.34;7593082;32;40112;-74
2022/08/08 11:22:54;;;;;;;6.87;3.62;;;;;;;23.59;54.10;100215.97;7602297;32;40002;-74
2022/08/08 11:27:10;;;;;;;8.32;4.32;;;;;;;23.96;53.73;100213.16;7618287;32;37620;-74
2022/08/08 11:31:40;;;;;;;6.30;4.50;;;;;;;23.08;56.70;100208.00;7631133;32;37962;-74
2022/08/08 11:36:03;;;;;;;9.18;4.82;;;;;;;23.61;55.14;100206.13;7629225;32;39459;-74
2022/08/08 11:40:22;;;;;;;7.93;5.32;;;;;;;23.38;56.00;100213.31;7630356;32;39635;-75
2022/08/08 11:44:41;;;;;;;9.48;4.70;;;;;;;22.96;58.04;100217.09;7630284;32;38004;-74
2022/08/08 11:49:13;;;;;;;11.52;5.25;;;;;;;22.67;59.55;100223.63;7616982;32;38046;-75
2022/08/08 11:53:32;;;;;;;7.75;4.78;;;;;;;22.41;60.27;100224.69;7631536;32;39035;-75
2022/08/08 11:58:08;;;;;;;14.23;5.12;;;;;;;22.65;59.67;100207.31;7615718;32;39914;-76
2022/08/08 12:02:31;;;;;;;15.93;7.37;;;;;;;22.86;60.31;100203.66;7631049;32;37634;-75
2022/08/08 12:06:48;;;;;;;15.20;9.80;;;;;;;22.55;62.46;100191.06;7617923;32;37104;-74
2022/08/08 12:11:17;;;;;;;13.50;9.43;;;;;;;22.88;62.50;100198.53;7631309;32;40518;-76
2022/08/08 12:15:47;;;;;;;20.00;13.13;;;;;;;23.10;62.42;100194.56;7630492;32;40587;-75
2022/08/08 12:20:06;;;;;;;24.05;14.10;;;;;;;22.92;62.85;100188.38;7630533;32;38975;-75
2022/08/08 12:24:29;;;;;;;10.02;6.00;;;;;;;22.80;63.45;100208.62;7618101;32;37266;-75
2022/08/08 12:28:56;;;;;;;8.80;4.85;;;;;;;22.65;63.33;100212.84;7629815;32;40202;-74
2022/08/08 12:33:18;;;;;;;15.90;9.57;;;;;;;22.29;64.35;100233.00;7616485;32;40802;-74
2022/08/08 12:37:35;;;;;;;19.50;15.10;;;;;;;21.84;66.00;100230.87;7616920;32;38832;-74
2022/08/08 12:42:00;;;;;;;12.80;8.65;;;;;;;22.02;65.81;100224.00;7617365;32;36859;-74
2022/08/08 12:46:23;;;;;;;8.48;5.80;;;;;;;22.11;65.99;100224.78;7616957;32;39466;-73
2022/08/08 12:50:43;;;;;;;12.68;8.43;;;;;;;21.75;66.73;100228.97;7628984;32;40103;-74
2022/08/08 12:55:06;;;;;;;16.65;10.85;;;;;;;22.26;66.43;100220.53;7630029;32;38473;-75
2022/08/08 12:59:30;;;;;;;13.73;8.15;;;;;;;22.51;65.75;100212.38;7629662;32;37211;-75
2022/08/08 13:04:10;;;;;;;12.73;6.90;;;;;;;22.41;66.91;100210.00;7629380;32;40147;-74
2022/08/08 13:08:44;;;;;;;11.35;8.18;;;;;;;22.37;66.71;100225.72;7618378;32;40839;-73
2022/08/08 13:13:25;;;;;;;16.35;9.10;;;;;;;22.40;66.99;100227.81;7629210;32;36586;-73
2022/08/08 13:17:43;;;;;;;14.65;9.18;;;;;;;21.97;69.36;100229.75;7616122;32;37436;-74
2022/08/08 13:22:19;;;;;;;13.32;7.78;;;;;;;21.89;69.71;100231.47;7623408;32;39648;-72
2022/08/08 13:26:39;;;;;;;13.07;8.68;;;;;;;21.99;68.44;100215.56;7606119;32;40186;-75
2022/08/08 13:31:01;;;;;;;12.20;8.30;;;;;;;22.14;67.51;100212.16;7607270;32;37027;-73
2022/08/08 13:35:19;;;;;;;14.52;8.70;;;;;;;22.22;67.99;100222.38;7606719;32;38001;-74
2022/08/08 13:39:55;;;;;;;12.95;8.80;;;;;;;22.31;68.38;100212.03;7626994;32;40170;-74
2022/08/08 13:44:12;;;;;;;13.13;8.40;;;;;;;22.53;68.12;100201.72;7631219;32;39911;-74
2022/08/08 13:48:44;;;;;;;;;;;;;;;22.61;66.92;100192.47;7618087;32;37695;-73
2022/08/08 13:53:27;;;;;;;11.20;6.65;;;;;;;22.95;66.43;100178.53;7631840;32;38382;-74
2022/08/08 13:57:51;;;;;;;11.27;6.60;;;;;;;23.10;63.62;100177.06;7632097;32;39424;-76
2022/08/08 14:02:27;;;;;;;9.80;6.05;;;;;;;23.28;64.33;100167.31;7614979;32;39694;-75
2022/08/08 14:06:48;;;;;;;8.68;5.00;;;;;;;22.86;63.82;100156.38;7656874;32;38508;-75
2022/08/08 14:11:04;;;;;;;8.93;5.12;;;;;;;23.27;60.21;100143.44;7632039;32;37096;-76
2022/08/08 14:15:27;;;;;;;8.20;5.75;;;;;;;23.43;61.55;100151.88;7632357;32;39341;-75
2022/08/08 14:20:28;;;;;;;8.77;5.35;;;;;;;23.12;62.18;100158.06;7639836;32;39697;-75
2022/08/08 14:25:07;;;;;;;8.55;5.53;;;;;;;23.03;61.96;100155.37;7610735;32;38381;-75
2022/08/08 14:29:30;;;;;;;6.30;4.35;;;;;;;23.29;62.53;100154.22;7631589;32;36776;-75
2022/08/08 14:33:56;;;;;;;6.32;3.65;;;;;;;23.15;61.10;100152.59;7632518;32;39283;-74
2022/08/08 14:38:13;;;;;;;5.55;3.65;;;;;;;23.07;60.35;100161.88;7618057;32;39866;-74
2022/08/08 14:42:51;;;;;;;5.47;2.92;;;;;;;23.27;60.15;100159.31;7625632;32;38851;-78
2022/08/08 14:47:14;;;;;;;4.57;3.05;;;;;;;23.13;57.42;100177.19;7631098;32;37219;-77
2022/08/08 14:51:42;;;;;;;5.57;3.12;;;;;;;22.93;58.49;100189.19;7623692;32;39481;-75
2022/08/08 14:56:07;;;;;;;4.32;3.10;;;;;;;22.80;58.36;100191.09;7629301;32;40843;-75
2022/08/08 15:00:26;;;;;;;3.72;2.70;;;;;;;22.61;58.33;100188.88;7630099;32;38100;-75
2022/08/08 15:04:43;;;;;;;6.68;3.37;;;;;;;22.91;57.79;100185.94;7617016;32;38090;-75
2022/08/08 15:09:00;;;;;;;4.97;2.83;;;;;;;22.72;59.04;100178.94;7630487;32;39107;-74
2022/08/08 15:13:19;;;;;;;4.97;3.20;;;;;;;22.67;59.28;100199.44;7631039;32;38954;-73
2022/08/08 15:17:36;;;;;;;4.85;3.35;;;;;;;22.60;58.63;100190.84;7627991;32;37929;-73
2022/08/08 15:21:54;;;;;;;6.47;3.50;;;;;;;21.83;60.69;100196.72;7629165;32;36714;-74
2022/08/08 15:26:12;;;;;;;6.70;3.50;;;;;;;22.05;60.01;100195.59;7616661;32;40942;-74
2022/08/08 15:30:30;;;;;;;4.97;3.08;;;;;;;22.08;60.02;100196.87;7630647;32;40024;-74
2022/08/08 15:34:47;;;;;;;4.37;2.90;;;;;;;21.99;59.97;100202.50;7631468;32;36996;-74
2022/08/08 15:39:03;;;;;;;5.37;3.10;;;;;;;22.53;59.53;100195.34;7631071;32;37162;-74
2022/08/08 15:43:23;;;;;;;4.68;3.05;;;;;;;22.29;58.61;100206.03;7630896;32;39309;-73
2022/08/08 15:47:51;;;;;;;5.70;3.20;;;;;;;22.81;57.49;100199.09;7630498;32;40880;-73
2022/08/08 15:52:28;;;;;;;7.55;3.47;;;;;;;22.78;57.36;100194.22;7630353;32;39316;-73
2022/08/08 15:56:47;;;;;;;6.65;3.80;;;;;;;22.80;58.15;100188.34;7631572;32;37871;-73
2022/08/08 16:01:04;;;;;;;9.88;4.90;;;;;;;22.83;58.02;100182.91;7630071;32;40056;-74
2022/08/08 16:05:20;;;;;;;6.40;3.05;;;;;;;22.97;56.71;100184.53;7617015;32;40537;-76
2022/08/08 16:09:38;;;;;;;5.75;3.25;;;;;;;23.04;56.57;100190.34;7617499;32;37686;-75
2022/08/08 16:14:15;;;;;;;6.78;3.25;;;;;;;22.84;57.04;100192.87;7630013;32;38601;-75
2022/08/08 16:18:49;;;;;;;;;;;;;;;22.78;57.04;100199.00;7631646;32;37585;-75
2022/08/08 16:23:13;;;;;;;5.22;3.20;;;;;;;22.99;56.50;100187.78;7629929;32;40527;-75
2022/08/08 16:27:31;;;;;;;7.07;4.07;;;;;;;22.18;59.02;100187.31;7629212;32;38915;-75
2022/08/08 16:31:49;;;;;;;6.57;3.75;;;;;;;22.29;58.52;100191.31;7629998;32;36698;-77
2022/08/08 16:36:08;;;;;;;6.68;3.75;;;;;;;22.46;59.20;100184.78;7627547;32;40067;-73
2022/08/08 16:40:30;;;;;;;6.68;3.72;;;;;;;22.66;58.67;100191.44;7629573;32;40217;-74
2022/08/08 16:44:47;;;;;;;10.02;4.20;;;;;;;22.74;58.67;100196.09;7628858;32;38720;-74
2022/08/08 16:49:10;;;;;;;8.48;5.05;;;;;;;22.46;59.90;100195.91;7629283;32;36836;-73
2022/08/08 16:53:26;;;;;;;8.85;5.12;;;;;;;22.16;61.01;100200.72;7627439;32;39510;-75
2022/08/08 16:58:03;;;;;;;8.80;5.80;;;;;;;22.35;60.82;100197.47;7605857;32;40257;-75
2022/08/08 17:02:31;;;;;;;12.00;7.15;;;;;;;22.03;62.36;100202.63;7633387;32;37980;-75
2022/08/08 17:06:59;;;;;;;8.70;5.90;;;;;;;21.78;62.88;100198.91;7632516;32;37334;-75
2022/08/08 17:11:15;;;;;;;14.48;8.50;;;;;;;21.99;62.67;100207.22;7632408;32;39459;-74
2022/08/08 17:15:36;;;;;;;11.80;6.12;;;;;;;21.79;63.17;100212.44;7618930;32;38516;-74
2022/08/08 17:20:03;;;;;;;10.90;6.80;;;;;;;21.65;63.81;100209.91;7632832;32;37753;-74
2022/08/08 17:24:20;;;;;;;12.20;6.65;;;;;;;21.75;63.53;100211.50;7632960;32;37159;-74
2022/08/08 17:28:44;;;;;;;10.40;6.15;;;;;;;21.79;63.57;100214.41;7632605;32;39471;-75
2022/08/08 17:33:00;;;;;;;11.35;5.72;;;;;;;21.71;63.97;100219.69;7632121;32;39910;-74
2022/08/08 17:37:39;;;;;;;11.93;6.50;;;;;;;21.95;63.11;100223.75;7631142;32;39206;-74
2022/08/08 17:42:09;;;;;;;12.27;6.00;;;;;;;21.97;62.56;100218.66;7632643;32;35938;-75
2022/08/08 17:46:39;;;;;;;9.13;5.57;;;;;;;21.38;64.01;100233.37;7632661;32;40207;-74
2022/08/08 17:50:56;;;;;;;9.82;5.87;;;;;;;21.56;63.36;100239.69;7631053;32;40134;-76
2022/08/08 17:55:12;;;;;;;10.35;5.62;;;;;;;21.54;63.02;100241.97;7631734;32;37670;-77
2022/08/08 17:59:48;;;;;;;13.85;5.75;;;;;;;21.14;63.91;100247.84;7627952;32;37088;-77
2022/08/08 18:04:06;;;;;;;9.15;5.40;;;;;;;21.35;63.13;100240.41;7629775;32;38523;-74
2022/08/08 18:08:33;;;;;;;8.07;5.30;;;;;;;21.28;63.24;100240.09;7629756;32;40571;-74
2022/08/08 18:12:56;;;;;;;10.35;5.25;;;;;;;21.26;62.39;100244.37;7626925;32;38678;-74
2022/08/08 18:17:16;;;;;;;8.02;5.03;;;;;;;20.98;62.77;100253.09;7623196;32;37100;-74
2022/08/08 18:21:54;;;;;;;9.38;4.85;;;;;;;20.98;63.32;100251.13;7600898;32;167067;-74
2022/08/08 18:26:17;;;;;;;9.07;5.37;;;;;;;21.10;62.09;100249.66;7606708;32;40827;-73
2022/08/08 18:30:34;;;;;;;10.38;4.97;;;;;;;20.78;62.51;100251.84;7623189;32;37592;-74
2022/08/08 18:34:52;;;;;;;7.80;5.07;;;;;;;21.05;61.34;100247.06;7631990;32;37160;-74
2022/08/08 18:39:08;;;;;;;10.32;5.35;;;;;;;21.03;61.38;100254.91;7631235;32;39139;-73
2022/08/08 18:43:31;;;;;;;10.05;5.10;;;;;;;21.11;61.32;100254.88;7631337;32;39947;-74
2022/08/08 18:47:58;;;;;;;9.50;5.12;;;;;;;21.00;61.93;100254.37;7631711;32;37888;-74
2022/08/08 18:52:14;;;;;;;8.65;4.53;;;;;;;21.16;61.52;100264.94;7625683;32;36716;-74
2022/08/08 18:56:38;;;;;;;9.00;4.95;;;;;;;20.55;63.30;100257.56;7631026;32;40378;-76
2022/08/08 19:00:55;;;;;;;8.50;4.68;;;;;;;20.85;62.68;100249.38;7617628;32;40035;-74
2022/08/08 19:05:12;;;;;;;8.60;4.75;;;;;;;21.12;61.94;100258.44;7630034;32;39361;-75
2022/08/08 19:09:28;;;;;;;9.07;4.90;;;;;;;20.49;63.47;100264.44;7622150;32;37242;-74
2022/08/08 19:14:04;;;;;;;8.90;4.57;;;;;;;20.83;61.73;100259.97;7624899;32;39738;-74
2022/08/08 19:18:21;;;;;;;7.55;4.85;;;;;;;20.52;62.75;100254.63;7617686;32;40919;-74
2022/08/08 19:22:57;;;;;;;8.95;4.93;;;;;;;20.49;63.37;100260.81;7628420;32;38549;-74
2022/08/08 19:27:14;;;;;;;10.18;4.70;;;;;;;20.45;63.64;100266.19;7628884;32;37032;-74
2022/08/08 19:31:30;;;;;;;7.47;5.57;;;;;;;20.57;63.20;100271.09;7630366;32;39928;-74
2022/08/08 19:35:50;;;;;;;7.55;4.62;;;;;;;20.64;62.95;100265.88;7630299;32;39989;-75
2022/08/08 19:40:23;;;;;;;9.57;4.45;;;;;;;20.72;62.98;100278.13;7630449;32;38769;-75
2022/08/08 19:44:47;;;;;;;7.47;4.90;;;;;;;20.78;62.73;100288.69;7629939;32;37212;-75
2022/08/08 19:49:06;;;;;;;10.70;5.85;;;;;;;20.81;62.49;100288.00;7630229;32;39699;-74
2022/08/08 19:53:24;;;;;;;10.23;5.78;;;;;;;20.69;62.75;100292.62;7629431;32;39966;-75
2022/08/08 19:58:00;;;;;;;8.88;5.00;;;;;;;20.60;63.14;100293.41;7629958;32;38659;-74
2022/08/08 20:02:18;;;;;;;10.57;4.95;;;;;;;20.54;63.30;100299.44;7630105;32;36971;-74
2022/08/08 20:06:35;;;;;;;9.57;5.40;;;;;;;20.45;63.78;100296.66;7629456;32;40127;-76
2022/08/08 20:10:52;;;;;;;10.07;5.22;;;;;;;20.40;63.88;100294.06;7630518;32;40122;-74
2022/08/08 20:15:10;;;;;;;11.85;5.85;;;;;;;20.62;63.14;100291.13;7630266;32;38745;-74
2022/08/08 20:19:32;;;;;;;8.32;5.20;;;;;;;20.69;62.85;100285.09;7630596;32;37919;-73
2022/08/08 20:23:58;;;;;;;11.82;5.43;;;;;;;20.63;63.31;100272.59;7630289;32;38992;-74
2022/08/08 20:28:14;;;;;;;8.07;5.00;;;;;;;20.51;63.60;100272.41;7630172;32;39587;-73
2022/08/08 20:32:39;;;;;;;7.30;4.87;;;;;;;20.74;62.83;100278.59;7630171;32;38112;-73
2022/08/08 20:36:55;;;;;;;7.25;5.15;;;;;;;20.81;63.08;100265.03;7632645;32;36229;-74
2022/08/08 20:41:12;;;;;;;7.07;4.75;;;;;;;20.77;63.13;100267.66;7631476;32;40166;-73
2022/08/08 20:45:34;;;;;;;13.70;6.15;;;;;;;20.79;62.99;100264.56;7629934;32;39688;-74
2022/08/08 20:50:10;;;;;;;8.68;5.70;;;;;;;20.86;62.67;100267.63;7628687;32;38276;-74
2022/08/08 20:54:27;;;;;;;9.32;5.45;;;;;;;20.63;63.23;100258.72;7629543;32;37809;-74
2022/08/08 20:58:43;;;;;;;7.70;4.78;;;;;;;20.71;63.14;100260.66;7632576;32;39925;-74
2022/08/08 21:03:02;;;;;;;8.55;4.62;;;;;;;20.81;63.03;100263.06;7632648;32;39918;-73
2022/08/08 21:07:23;;;;;;;6.62;4.75;;;;;;;20.89;62.89;100260.66;7632661;32;38828;-73
2022/08/08 21:12:01;;;;;;;9.05;5.07;;;;;;;20.77;63.20;100253.81;7632242;32;37394;-74
2022/08/08 21:16:18;;;;;;;9.82;4.75;;;;;;;21.08;61.95;100246.41;7632698;32;39916;-73
2022/08/08 21:20:43;;;;;;;9.15;4.78;;;;;;;20.94;62.42;100252.97;7631877;32;40167;-73
2022/08/08 21:25:06;;;;;;;10.35;4.82;;;;;;;20.91;61.92;100253.63;7632654;32;36244;-72
2022/08/08 21:29:29;;;;;;;9.80;4.37;;;;;;;20.87;62.13;100247.13;7633502;32;37929;-73
2022/08/08 21:34:05;;;;;;;8.85;4.10;;;;;;;20.71;61.35;100249.56;7632964;32;40441;-73
2022/08/08 21:38:24;;;;;;;8.90;4.35;;;;;;;20.71;60.69;100248.78;7633023;32;38947;-73
2022/08/08 21:42:40;;;;;;;6.97;4.25;;;;;;;20.26;62.42;100256.28;7633207;32;37736;-72
2022/08/08 21:46:56;;;;;;;5.95;4.22;;;;;;;20.47;62.05;100258.38;7632447;32;36833;-73
2022/08/08 21:51:34;;;;;;;12.37;4.10;;;;;;;20.38;62.25;100257.56;7633272;32;39746;-73
2022/08/08 21:56:10;;;;;;;6.15;3.90;;;;;;;20.37;61.86;100275.31;7621764;32;40254;-73
2022/08/08 22:00:47;;;;;;;8.65;4.30;;;;;;;20.66;60.57;100269.12;7632643;32;38487;-73
2022/08/08 22:05:10;;;;;;;6.20;3.70;;;;;;;20.74;61.04;100271.09;7632815;32;37349;-73
2022/08/08 22:09:29;;;;;;;12.02;3.85;;;;;;;20.80;61.40;100277.28;7632782;32;40168;-73
2022/08/08 22:13:58;;;;;;;6.43;4.15;;;;;;;20.74;61.52;100275.81;7631805;32;39788;-73
2022/08/08 22:18:15;;;;;;;7.93;4.18;;;;;;;21.09;60.44;100282.06;7632761;32;37947;-74
2022/08/08 22:22:31;;;;;;;9.35;4.30;;;;;;;21.20;60.25;100269.50;7632831;32;37046;-72
2022/08/08 22:26:53;;;;;;;6.82;4.05;;;;;;;21.09;60.63;100270.19;7632666;32;39390;-73
2022/08/08 22:31:18;;;;;;;9.07;4.30;;;;;;;21.03;60.96;100265.97;7632884;32;40138;-73
2022/08/08 22:35:34;;;;;;;6.93;3.85;;;;;;;21.10;60.50;100274.59;7632318;32;38461;-73
2022/08/08 22:40:10;;;;;;;5.22;4.00;;;;;;;21.01;59.90;100269.09;7632308;32;37083;-73
2022/08/08 22:44:31;;;;;;;4.87;2.87;;;;;;;21.09;59.12;100264.63;7632183;32;40213;-73
2022/08/08 22:48:51;;;;;;;8.27;3.95;;;;;;;21.09;59.23;100275.72;7632511;32;40012;-73
2022/08/08 22:53:09;;;;;;;6.40;3.50;;;;;;;21.07;59.20;100273.28;7632430;32;38048;-73
2022/08/08 22:57:45;;;;;;;5.12;3.47;;;;;;;21.03;59.72;100277.06;7631804;32;38428;-73
2022/08/08 23:02:04;;;;;;;6.60;3.47;;;;;;;21.16;59.33;100282.41;7632345;32;39926;-73
2022/08/08 23:06:27;;;;;;;7.15;3.55;;;;;;;21.33;58.58;100270.41;7632043;32;40796;-72
2022/08/08 23:10:44;;;;;;;5.10;3.28;;;;;;;21.20;58.95;100263.16;7632349;32;37901;-73